Portada
METAR-TAF:

METAR-TAF

Aeropuertos :

Luxeuil-les-Bains, Francia

latitud: 47-47N, longitud: 006-21E, altitud: 278 m

Observación

El informe se hizo hace 33 minutos, a las 03:00 UTC
Viento 2 kt del este
Temperatura 7°C
Humedad 87%
Presión 1017 hPa
Visibilidad 10 km o más
sin nubes por debajo de 1500 m y sin presencia de cumulonimbus.

METAR: LFSX 010300Z AUTO 08002KT CAVOK 07/05 Q1017

Hora: 05:33 (03:33 UTC)

Pronóstico

El informe se hizo hace 1 hora y 33 minutos, a las 02:00 UTC
Pronóstico válido del 01 a las 03 UTC al 02 a las 03 UTC
Viento 2 kt con dirección variable
Visibilidad 10 km o más
sin nubes por debajo de 1500 m y sin presencia de cumulonimbus.

TAF: LFSX 010200Z 0103/0203 VRB02KT CAVOK

Observaciones y pronósticos meteorológicos de más de 4000 aeropuertos (mensajes METAR y TAF).

Los puntos amarillos y rojos representan las estaciones disponibles.

Ponga el ratón en el punto deseado para ver el nombre de la estación.

Haga clic para ver las observaciones y los pronósticos meteorológicos.

Para cambiar el mapa : haga clic en los botones verdes con una cruz de color negro para hacer un zoom, en el botón verde con un guión para alejar o en las flechas verdes para mapas adyacentes.


METAR-TAF: